sensor_id;sensor_type;location;lat;lon;timestamp;pressure;altitude;pressure_sealevel;temperature;humidity
3150;BME280;32503;47.748;8.960;2023-02-16T00:01:23;98051.72;;;1.83;74.27
3150;BME280;32503;47.748;8.960;2023-02-16T00:03:52;98021.88;;;1.76;74.09
3150;BME280;32503;47.748;8.960;2023-02-16T00:06:19;98068.25;;;2.06;73.84
3150;BME280;32503;47.748;8.960;2023-02-16T00:08:48;98020.81;;;1.77;73.99
3150;BME280;32503;47.748;8.960;2023-02-16T00:11:20;98063.44;;;2.03;73.76
3150;BME280;32503;47.748;8.960;2023-02-16T00:14:09;98057.31;;;2.02;73.82
3150;BME280;32503;47.748;8.960;2023-02-16T00:16:36;98055.47;;;1.98;73.85
3150;BME280;32503;47.748;8.960;2023-02-16T00:19:17;98072.53;;;2.02;74.26
3150;BME280;32503;47.748;8.960;2023-02-16T00:21:45;98030.41;;;1.68;74.06
3150;BME280;32503;47.748;8.960;2023-02-16T00:24:12;98069.84;;;1.92;73.82
3150;BME280;32503;47.748;8.960;2023-02-16T00:26:41;98068.81;;;1.93;73.80
3150;BME280;32503;47.748;8.960;2023-02-16T00:29:19;98061.84;;;1.81;74.38
3150;BME280;32503;47.748;8.960;2023-02-16T00:31:47;98067.19;;;1.92;74.28
3150;BME280;32503;47.748;8.960;2023-02-16T00:34:31;98066.13;;;1.93;73.66
3150;BME280;32503;47.748;8.960;2023-02-16T00:37:01;98067.97;;;1.92;73.62
3150;BME280;32503;47.748;8.960;2023-02-16T00:39:28;98065.31;;;1.97;73.83
3150;BME280;32503;47.748;8.960;2023-02-16T00:41:59;98053.31;;;1.89;73.62
3150;BME280;32503;47.748;8.960;2023-02-16T00:44:32;98064.00;;;1.79;73.56
3150;BME280;32503;47.748;8.960;2023-02-16T00:47:02;98075.19;;;1.92;73.41
3150;BME280;32503;47.748;8.960;2023-02-16T00:49:30;98087.47;;;1.87;73.23
3150;BME280;32503;47.748;8.960;2023-02-16T00:51:57;98087.72;;;1.81;73.82
3150;BME280;32503;47.748;8.960;2023-02-16T00:54:24;98086.41;;;1.73;73.70
3150;BME280;32503;47.748;8.960;2023-02-16T00:56:51;98095.47;;;1.72;74.16
3150;BME280;32503;47.748;8.960;2023-02-16T00:59:21;98084.53;;;1.74;73.88
3150;BME280;32503;47.748;8.960;2023-02-16T01:01:49;98080.25;;;1.73;73.54
3150;BME280;32503;47.748;8.960;2023-02-16T01:04:20;98049.59;;;1.49;73.58
3150;BME280;32503;47.748;8.960;2023-02-16T01:06:48;98077.84;;;1.76;73.52
3150;BME280;32503;47.748;8.960;2023-02-16T01:09:33;98076.28;;;1.70;73.65
3150;BME280;32503;47.748;8.960;2023-02-16T01:12:18;98085.06;;;1.65;73.17
3150;BME280;32503;47.748;8.960;2023-02-16T01:14:52;98068.25;;;1.55;73.66
3150;BME280;32503;47.748;8.960;2023-02-16T01:17:19;98095.47;;;1.72;73.53
3150;BME280;32503;47.748;8.960;2023-02-16T01:19:47;98091.75;;;1.73;73.64
3150;BME280;32503;47.748;8.960;2023-02-16T01:22:14;98088.00;;;1.74;73.79
3150;BME280;32503;47.748;8.960;2023-02-16T01:24:41;98088.00;;;1.74;73.23
3150;BME280;32503;47.748;8.960;2023-02-16T01:27:10;98078.38;;;1.52;73.74
3150;BME280;32503;47.748;8.960;2023-02-16T01:29:38;98075.44;;;1.39;73.44
3150;BME280;32503;47.748;8.960;2023-02-16T01:32:09;98074.59;;;1.23;73.95
3150;BME280;32503;47.748;8.960;2023-02-16T01:34:36;98069.81;;;1.25;73.65
3150;BME280;32503;47.748;8.960;2023-02-16T01:37:03;98058.84;;;1.06;73.95
3150;BME280;32503;47.748;8.960;2023-02-16T01:39:30;98063.13;;;1.07;74.61
3150;BME280;32503;47.748;8.960;2023-02-16T01:42:17;98062.09;;;1.13;75.14
3150;BME280;32503;47.748;8.960;2023-02-16T01:44:52;98053.53;;;1.16;74.78
3150;BME280;32503;47.748;8.960;2023-02-16T01:47:35;98019.94;;;0.94;75.04
3150;BME280;32503;47.748;8.960;2023-02-16T01:50:14;98047.94;;;1.18;74.94
3150;BME280;32503;47.748;8.960;2023-02-16T01:52:44;98051.97;;;1.20;74.67
3150;BME280;32503;47.748;8.960;2023-02-16T01:55:20;98016.47;;;0.84;75.35
3150;BME280;32503;47.748;8.960;2023-02-16T01:57:51;98065.56;;;1.19;74.78
3150;BME280;32503;47.748;8.960;2023-02-16T02:00:28;98043.97;;;1.15;74.88
3150;BME280;32503;47.748;8.960;2023-02-16T02:03:00;98026.63;;;1.07;74.80
3150;BME280;32503;47.748;8.960;2023-02-16T02:05:41;98060.78;;;1.36;74.50
3150;BME280;32503;47.748;8.960;2023-02-16T02:08:22;98059.19;;;1.35;74.91
3150;BME280;32503;47.748;8.960;2023-02-16T02:11:02;98043.16;;;1.25;74.76
3150;BME280;32503;47.748;8.960;2023-02-16T02:13:38;98055.72;;;1.35;75.08
3150;BME280;32503;47.748;8.960;2023-02-16T02:16:06;98064.78;;;1.39;75.16
3150;BME280;32503;47.748;8.960;2023-02-16T02:18:35;98055.44;;;1.46;75.05
3150;BME280;32503;47.748;8.960;2023-02-16T02:21:45;98062.94;;;1.55;74.54
3150;BME280;32503;47.748;8.960;2023-02-16T02:25:25;98052.81;;;1.41;74.50
3150;BME280;32503;47.748;8.960;2023-02-16T02:28:01;98044.53;;;1.43;74.49
3150;BME280;32503;47.748;8.960;2023-02-16T02:30:44;98036.78;;;1.46;74.14
3150;BME280;32503;47.748;8.960;2023-02-16T02:33:30;98034.13;;;1.26;74.21
3150;BME280;32503;47.748;8.960;2023-02-16T02:36:13;98041.59;;;1.29;74.16
3150;BME280;32503;47.748;8.960;2023-02-16T02:38:55;98033.34;;;1.25;74.08
3150;BME280;32503;47.748;8.960;2023-02-16T02:41:27;98029.84;;;1.20;74.08
3150;BME280;32503;47.748;8.960;2023-02-16T02:44:16;98041.03;;;1.22;73.94
3150;BME280;32503;47.748;8.960;2023-02-16T02:46:46;98042.34;;;1.14;73.80
3150;BME280;32503;47.748;8.960;2023-02-16T02:49:14;98041.81;;;1.12;74.02
3150;BME280;32503;47.748;8.960;2023-02-16T02:51:41;98041.31;;;1.20;73.66
3150;BME280;32503;47.748;8.960;2023-02-16T02:54:12;98043.69;;;1.22;73.74
3150;BME280;32503;47.748;8.960;2023-02-16T02:57:06;98031.16;;;1.12;73.60
3150;BME280;32503;47.748;8.960;2023-02-16T02:59:58;98043.41;;;1.18;73.69
3150;BME280;32503;47.748;8.960;2023-02-16T03:02:44;98045.03;;;1.24;73.66
3150;BME280;32503;47.748;8.960;2023-02-16T03:05:14;98042.13;;;1.26;73.35
3150;BME280;32503;47.748;8.960;2023-02-16T03:07:45;98004.78;;;1.00;73.32
3150;BME280;32503;47.748;8.960;2023-02-16T03:10:18;98047.44;;;1.21;72.98
3150;BME280;32503;47.748;8.960;2023-02-16T03:13:07;98006.09;;;0.92;73.10
3150;BME280;32503;47.748;8.960;2023-02-16T03:15:38;98043.41;;;1.18;73.50
3150;BME280;32503;47.748;8.960;2023-02-16T03:18:08;98044.25;;;1.19;73.11
3150;BME280;32503;47.748;8.960;2023-02-16T03:20:55;98054.06;;;1.18;73.01
3150;BME280;32503;47.748;8.960;2023-02-16T03:23:40;98055.44;;;1.21;73.04
3150;BME280;32503;47.748;8.960;2023-02-16T03:26:26;98058.09;;;1.21;72.43
3150;BME280;32503;47.748;8.960;2023-02-16T03:29:13;98048.50;;;1.25;72.71
3150;BME280;32503;47.748;8.960;2023-02-16T03:31:43;98032.78;;;1.08;72.38
3150;BME280;32503;47.748;8.960;2023-02-16T03:34:12;98050.09;;;1.21;72.42
3150;BME280;32503;47.748;8.960;2023-02-16T03:36:43;98032.50;;;1.04;72.84
3150;BME280;32503;47.748;8.960;2023-02-16T03:39:12;98043.97;;;1.15;72.75
3150;BME280;32503;47.748;8.960;2023-02-16T03:41:43;98038.09;;;1.03;72.23
3150;BME280;32503;47.748;8.960;2023-02-16T03:44:12;98042.59;;;0.97;72.18
3150;BME280;32503;47.748;8.960;2023-02-16T03:46:39;98044.97;;;0.88;72.06
3150;BME280;32503;47.748;8.960;2023-02-16T03:49:08;98049.19;;;0.84;72.46
3150;BME280;32503;47.748;8.960;2023-02-16T03:51:35;98048.41;;;0.84;72.76
3150;BME280;32503;47.748;8.960;2023-02-16T03:54:02;98042.53;;;0.77;73.17
3150;BME280;32503;47.748;8.960;2023-02-16T03:56:29;98046.78;;;0.83;72.83
3150;BME280;32503;47.748;8.960;2023-02-16T03:58:56;98050.03;;;0.85;72.99
3150;BME280;32503;47.748;8.960;2023-02-16T04:01:24;98046.56;;;0.89;73.06
3150;BME280;32503;47.748;8.960;2023-02-16T04:03:51;98056.94;;;0.86;73.60
3150;BME280;32503;47.748;8.960;2023-02-16T04:06:19;98053.72;;;0.84;73.60
3150;BME280;32503;47.748;8.960;2023-02-16T04:08:47;98062.78;;;0.88;73.44
3150;BME280;32503;47.748;8.960;2023-02-16T04:11:15;98076.66;;;0.85;73.21
3150;BME280;32503;47.748;8.960;2023-02-16T04:13:59;98073.41;;;0.83;73.58
3150;BME280;32503;47.748;8.960;2023-02-16T04:16:27;98081.16;;;0.84;73.33
3150;BME280;32503;47.748;8.960;2023-02-16T04:18:54;98061.72;;;0.84;73.07
3150;BME280;32503;47.748;8.960;2023-02-16T04:21:23;98016.06;;;0.49;73.21
3150;BME280;32503;47.748;8.960;2023-02-16T04:23:50;98076.66;;;0.85;73.16
3150;BME280;32503;47.748;8.960;2023-02-16T04:26:17;98057.94;;;0.69;73.53
3150;BME280;32503;47.748;8.960;2023-02-16T04:28:44;98067.81;;;0.79;73.44
3150;BME280;32503;47.748;8.960;2023-02-16T04:31:11;98069.41;;;0.75;73.54
3150;BME280;32503;47.748;8.960;2023-02-16T04:33:38;98074.44;;;0.71;73.26
3150;BME280;32503;47.748;8.960;2023-02-16T04:36:06;98075.50;;;0.70;73.65
3150;BME280;32503;47.748;8.960;2023-02-16T04:38:35;98071.50;;;0.68;73.44
3150;BME280;32503;47.748;8.960;2023-02-16T04:41:02;98059.50;;;0.55;73.37
3150;BME280;32503;47.748;8.960;2023-02-16T04:43:29;98081.38;;;0.67;73.21
3150;BME280;32503;47.748;8.960;2023-02-16T04:45:57;98075.47;;;0.60;73.16
3150;BME280;32503;47.748;8.960;2023-02-16T04:48:24;98079.69;;;0.56;73.17
3150;BME280;32503;47.748;8.960;2023-02-16T04:50:51;98088.75;;;0.55;73.34
3150;BME280;32503;47.748;8.960;2023-02-16T04:53:18;98075.66;;;0.43;73.38
3150;BME280;32503;47.748;8.960;2023-02-16T04:55:48;98072.16;;;0.37;73.34
3150;BME280;32503;47.748;8.960;2023-02-16T04:58:16;98084.50;;;0.59;73.39
3150;BME280;32503;47.748;8.960;2023-02-16T05:00:43;98093.31;;;0.65;73.08
3150;BME280;32503;47.748;8.960;2023-02-16T05:03:10;98064.84;;;0.60;72.90
3150;BME280;32503;47.748;8.960;2023-02-16T05:05:38;98086.16;;;0.70;72.87
3150;BME280;32503;47.748;8.960;2023-02-16T05:08:06;98077.66;;;0.73;72.77
3150;BME280;32503;47.748;8.960;2023-02-16T05:10:33;98077.34;;;0.65;73.09
3150;BME280;32503;47.748;8.960;2023-02-16T05:13:01;98050.94;;;0.53;72.94
3150;BME280;32503;47.748;8.960;2023-02-16T05:15:46;98086.97;;;0.71;73.31
3150;BME280;32503;47.748;8.960;2023-02-16T05:18:13;98078.13;;;0.65;73.29
3150;BME280;32503;47.748;8.960;2023-02-16T05:20:40;98078.41;;;0.69;73.41
3150;BME280;32503;47.748;8.960;2023-02-16T05:23:24;98077.06;;;0.61;73.46
3150;BME280;32503;47.748;8.960;2023-02-16T05:25:51;98080.81;;;0.60;73.88
3150;BME280;32503;47.748;8.960;2023-02-16T05:28:20;98069.31;;;0.54;73.93
3150;BME280;32503;47.748;8.960;2023-02-16T05:30:47;98087.47;;;0.63;74.11
3150;BME280;32503;47.748;8.960;2023-02-16T05:33:14;98089.84;;;0.59;74.52
3150;BME280;32503;47.748;8.960;2023-02-16T05:35:41;98085.03;;;0.56;74.97
3150;BME280;32503;47.748;8.960;2023-02-16T05:38:08;98064.19;;;0.37;74.88
3150;BME280;32503;47.748;8.960;2023-02-16T05:40:35;98094.88;;;0.55;75.02
3150;BME280;32503;47.748;8.960;2023-02-16T05:43:02;98085.59;;;0.63;75.00
3150;BME280;32503;47.748;8.960;2023-02-16T05:45:30;98094.66;;;0.62;74.92
3150;BME280;32503;47.748;8.960;2023-02-16T05:47:57;98091.97;;;0.57;75.42
3150;BME280;32503;47.748;8.960;2023-02-16T05:50:24;98088.19;;;0.53;75.35
3150;BME280;32503;47.748;8.960;2023-02-16T05:52:51;98077.00;;;0.51;75.48
3150;BME280;32503;47.748;8.960;2023-02-16T05:55:18;98088.22;;;0.58;75.66
3150;BME280;32503;47.748;8.960;2023-02-16T05:57:45;98095.19;;;0.64;75.46
3150;BME280;32503;47.748;8.960;2023-02-16T06:02:42;98102.69;;;0.72;75.32
3150;BME280;32503;47.748;8.960;2023-02-16T06:05:09;98095.25;;;0.74;75.56
3150;BME280;32503;47.748;8.960;2023-02-16T06:07:36;98098.19;;;0.78;75.43
3150;BME280;32503;47.748;8.960;2023-02-16T06:10:05;98104.78;;;0.70;75.66
3150;BME280;32503;47.748;8.960;2023-02-16T06:12:32;98103.72;;;0.66;75.86
3150;BME280;32503;47.748;8.960;2023-02-16T06:14:59;98103.22;;;0.74;75.92
3150;BME280;32503;47.748;8.960;2023-02-16T06:17:26;98107.63;;;1.17;76.88
3150;BME280;32503;47.748;8.960;2023-02-16T06:19:55;98088.81;;;1.64;76.50
3150;BME280;32503;47.748;8.960;2023-02-16T06:22:22;98116.28;;;1.75;75.91
3150;BME280;32503;47.748;8.960;2023-02-16T06:24:49;98127.97;;;1.59;75.55
3150;BME280;32503;47.748;8.960;2023-02-16T06:27:16;98138.63;;;1.48;75.11
3150;BME280;32503;47.748;8.960;2023-02-16T06:29:43;98138.31;;;1.35;75.22
3150;BME280;32503;47.748;8.960;2023-02-16T06:32:10;98138.84;;;1.37;74.98
3150;BME280;32503;47.748;8.960;2023-02-16T06:34:37;98132.97;;;1.24;75.09
3150;BME280;32503;47.748;8.960;2023-02-16T06:37:06;98143.34;;;1.21;75.28
3150;BME280;32503;47.748;8.960;2023-02-16T06:39:33;98132.41;;;1.17;75.03
3150;BME280;32503;47.748;8.960;2023-02-16T06:42:00;98133.47;;;1.21;75.23
3150;BME280;32503;47.748;8.960;2023-02-16T06:44:27;98136.94;;;1.22;75.24
3150;BME280;32503;47.748;8.960;2023-02-16T06:46:54;98132.97;;;1.24;75.06
3150;BME280;32503;47.748;8.960;2023-02-16T06:49:21;98131.59;;;1.22;75.01
3150;BME280;32503;47.748;8.960;2023-02-16T06:51:48;98135.34;;;1.16;75.10
3150;BME280;32503;47.748;8.960;2023-02-16T06:54:17;98149.69;;;1.14;75.38
3150;BME280;32503;47.748;8.960;2023-02-16T06:56:44;98147.03;;;1.14;75.29
3150;BME280;32503;47.748;8.960;2023-02-16T06:59:11;98143.81;;;1.07;75.15
3150;BME280;32503;47.748;8.960;2023-02-16T07:01:39;98144.63;;;1.08;75.38
3150;BME280;32503;47.748;8.960;2023-02-16T07:04:06;98145.41;;;1.03;75.47
3150;BME280;32503;47.748;8.960;2023-02-16T07:06:33;98159.50;;;1.04;75.12
3150;BME280;32503;47.748;8.960;2023-02-16T07:09:01;98160.63;;;1.08;74.93
3150;BME280;32503;47.748;8.960;2023-02-16T07:11:29;98161.41;;;1.08;75.33
3150;BME280;32503;47.748;8.960;2023-02-16T07:13:57;98160.63;;;1.18;75.08
3150;BME280;32503;47.748;8.960;2023-02-16T07:16:24;98158.53;;;1.20;74.70
3150;BME280;32503;47.748;8.960;2023-02-16T07:18:51;98142.47;;;1.00;74.44
3150;BME280;32503;47.748;8.960;2023-02-16T07:21:18;98164.66;;;1.21;74.79
3150;BME280;32503;47.748;8.960;2023-02-16T07:23:45;98175.06;;;1.27;74.88
3150;BME280;32503;47.748;8.960;2023-02-16T07:26:12;98147.00;;;1.09;74.88
3150;BME280;32503;47.748;8.960;2023-02-16T07:28:41;98175.34;;;1.26;74.68
3150;BME280;32503;47.748;8.960;2023-02-16T07:31:09;98170.00;;;1.26;74.69
3150;BME280;32503;47.748;8.960;2023-02-16T07:33:37;98172.94;;;1.29;75.11
3150;BME280;32503;47.748;8.960;2023-02-16T07:36:05;98176.41;;;1.35;74.64
3150;BME280;32503;47.748;8.960;2023-02-16T07:38:32;98143.56;;;1.14;74.76
3150;BME280;32503;47.748;8.960;2023-02-16T07:41:00;98179.13;;;1.45;74.84
3150;BME280;32503;47.748;8.960;2023-02-16T07:43:27;98182.06;;;1.49;74.48
3150;BME280;32503;47.748;8.960;2023-02-16T07:45:55;98174.31;;;1.47;74.60
3150;BME280;32503;47.748;8.960;2023-02-16T07:48:22;98181.28;;;1.48;74.70
3150;BME280;32503;47.748;8.960;2023-02-16T07:50:49;98147.09;;;1.30;74.70
3150;BME280;32503;47.748;8.960;2023-02-16T07:53:17;98180.22;;;1.55;74.64
3150;BME280;32503;47.748;8.960;2023-02-16T07:55:45;98167.97;;;1.54;74.78
3150;BME280;32503;47.748;8.960;2023-02-16T07:58:12;98183.97;;;1.74;73.96
3150;BME280;32503;47.748;8.960;2023-02-16T08:00:53;98174.38;;;1.78;73.58
3150;BME280;32503;47.748;8.960;2023-02-16T08:03:21;98170.63;;;1.69;74.01
3150;BME280;32503;47.748;8.960;2023-02-16T08:05:48;98173.84;;;1.71;73.67
3150;BME280;32503;47.748;8.960;2023-02-16T08:08:15;98169.84;;;1.68;74.25
3150;BME280;32503;47.748;8.960;2023-02-16T08:10:42;98166.13;;;1.69;73.98
3150;BME280;32503;47.748;8.960;2023-02-16T08:13:09;98169.03;;;1.78;73.97
3150;BME280;32503;47.748;8.960;2023-02-16T08:15:36;98162.13;;;1.77;74.12
3150;BME280;32503;47.748;8.960;2023-02-16T08:18:03;98184.53;;;1.92;73.34
3150;BME280;32503;47.748;8.960;2023-02-16T08:20:32;98183.47;;;1.87;73.88
3150;BME280;32503;47.748;8.960;2023-02-16T08:22:59;98190.94;;;1.90;73.53
3150;BME280;32503;47.748;8.960;2023-02-16T08:25:26;98185.09;;;1.99;73.75
3150;BME280;32503;47.748;8.960;2023-02-16T08:27:53;98198.16;;;2.00;73.39
3150;BME280;32503;47.748;8.960;2023-02-16T08:30:20;98190.69;;;2.02;73.56
3150;BME280;32503;47.748;8.960;2023-02-16T08:32:49;98197.09;;;2.06;73.06
3150;BME280;32503;47.748;8.960;2023-02-16T08:35:18;98195.75;;;2.09;73.44
3150;BME280;32503;47.748;8.960;2023-02-16T08:37:46;98201.13;;;2.19;73.33
3150;BME280;32503;47.748;8.960;2023-02-16T08:40:15;98194.44;;;2.27;73.62
3150;BME280;32503;47.748;8.960;2023-02-16T08:42:43;98186.44;;;2.32;72.97
3150;BME280;32503;47.748;8.960;2023-02-16T08:45:10;98192.03;;;2.41;73.54
3150;BME280;32503;47.748;8.960;2023-02-16T08:47:38;98192.03;;;2.46;73.16
3150;BME280;32503;47.748;8.960;2023-02-16T08:50:06;98189.63;;;2.39;73.27
3150;BME280;32503;47.748;8.960;2023-02-16T08:52:34;98184.03;;;2.41;73.13
3150;BME280;32503;47.748;8.960;2023-02-16T08:55:03;98184.56;;;2.38;73.20
3150;BME280;32503;47.748;8.960;2023-02-16T08:57:32;98195.22;;;2.43;72.71
3150;BME280;32503;47.748;8.960;2023-02-16T09:00:00;98186.94;;;2.39;72.66
3150;BME280;32503;47.748;8.960;2023-02-16T09:02:45;98200.84;;;2.46;72.74
3150;BME280;32503;47.748;8.960;2023-02-16T09:05:12;98195.22;;;2.53;72.71
3150;BME280;32503;47.748;8.960;2023-02-16T09:07:40;98162.66;;;2.36;72.79
3150;BME280;32503;47.748;8.960;2023-02-16T09:10:09;98201.63;;;2.57;72.17
3150;BME280;32503;47.748;8.960;2023-02-16T09:12:37;98197.63;;;2.50;71.79
3150;BME280;32503;47.748;8.960;2023-02-16T09:15:05;98206.16;;;2.57;72.05
3150;BME280;32503;47.748;8.960;2023-02-16T09:17:33;98208.31;;;2.65;71.85
3150;BME280;32503;47.748;8.960;2023-02-16T09:20:01;98203.50;;;2.62;72.30
3150;BME280;32503;47.748;8.960;2023-02-16T09:22:28;98206.69;;;2.69;72.12
3150;BME280;32503;47.748;8.960;2023-02-16T09:24:55;98204.28;;;2.73;72.09
3150;BME280;32503;47.748;8.960;2023-02-16T09:27:23;98202.94;;;2.70;72.01
3150;BME280;32503;47.748;8.960;2023-02-16T09:29:52;98185.06;;;2.50;71.96
3150;BME280;32503;47.748;8.960;2023-02-16T09:32:19;98203.22;;;2.74;71.84
3150;BME280;32503;47.748;8.960;2023-02-16T09:34:47;98193.59;;;2.68;71.56
3150;BME280;32503;47.748;8.960;2023-02-16T09:37:15;98188.25;;;2.73;71.61
3150;BME280;32503;47.748;8.960;2023-02-16T09:39:43;98185.56;;;2.78;71.05
3150;BME280;32503;47.748;8.960;2023-02-16T09:42:23;98198.91;;;2.93;71.17
3150;BME280;32503;47.748;8.960;2023-02-16T09:45:02;98181.78;;;2.89;70.48
3150;BME280;32503;47.748;8.960;2023-02-16T09:47:33;98186.81;;;3.06;70.38
3150;BME280;32503;47.748;8.960;2023-02-16T09:50:11;98188.16;;;3.03;70.34
3150;BME280;32503;47.748;8.960;2023-02-16T09:52:44;98192.19;;;3.06;70.65
3150;BME280;32503;47.748;8.960;2023-02-16T09:55:16;98159.38;;;2.85;70.99
3150;BME280;32503;47.748;8.960;2023-02-16T09:58:03;98187.63;;;3.07;70.78
3150;BME280;32503;47.748;8.960;2023-02-16T10:00:51;98191.28;;;3.26;70.41
3150;BME280;32503;47.748;8.960;2023-02-16T10:03:41;98186.44;;;3.33;70.51
3150;BME280;32503;47.748;8.960;2023-02-16T10:06:30;98192.28;;;3.40;70.47
3150;BME280;32503;47.748;8.960;2023-02-16T10:09:05;98188.56;;;3.36;70.00
3150;BME280;32503;47.748;8.960;2023-02-16T10:11:36;98153.09;;;3.20;69.98
3150;BME280;32503;47.748;8.960;2023-02-16T10:14:16;98197.06;;;3.54;69.85
3150;BME280;32503;47.748;8.960;2023-02-16T10:16:53;98180.19;;;3.58;69.65
3150;BME280;32503;47.748;8.960;2023-02-16T10:19:27;98186.22;;;3.79;70.00
3150;BME280;32503;47.748;8.960;2023-02-16T10:21:58;98184.81;;;3.87;69.26
3150;BME280;32503;47.748;8.960;2023-02-16T10:24:30;98193.50;;;4.08;69.33
3150;BME280;32503;47.748;8.960;2023-02-16T10:27:09;98173.88;;;4.18;68.90
3150;BME280;32503;47.748;8.960;2023-02-16T10:29:40;98180.94;;;4.43;68.31
3150;BME280;32503;47.748;8.960;2023-02-16T10:32:18;98189.34;;;4.61;68.03
3150;BME280;32503;47.748;8.960;2023-02-16T10:34:51;98174.25;;;4.70;67.78
3150;BME280;32503;47.748;8.960;2023-02-16T10:37:36;98156.06;;;4.67;67.45
3150;BME280;32503;47.748;8.960;2023-02-16T10:40:21;98134.06;;;4.70;66.16
3150;BME280;32503;47.748;8.960;2023-02-16T10:42:59;98152.56;;;4.90;66.35
3150;BME280;32503;47.748;8.960;2023-02-16T10:45:36;98162.00;;;5.12;66.13
3150;BME280;32503;47.748;8.960;2023-02-16T10:48:08;98171.97;;;5.30;65.90
3150;BME280;32503;47.748;8.960;2023-02-16T10:50:40;98166.81;;;5.34;64.63
3150;BME280;32503;47.748;8.960;2023-02-16T10:53:13;98155.53;;;5.13;64.22
3150;BME280;32503;47.748;8.960;2023-02-16T10:55:41;98161.94;;;5.17;64.41
3150;BME280;32503;47.748;8.960;2023-02-16T10:58:18;98162.16;;;5.21;64.78
3150;BME280;32503;47.748;8.960;2023-02-16T11:00:53;98162.84;;;5.31;64.33
3150;BME280;32503;47.748;8.960;2023-02-16T11:03:24;98157.72;;;5.54;64.90
3150;BME280;32503;47.748;8.960;2023-02-16T11:05:53;98151.19;;;5.60;65.18
3150;BME280;32503;47.748;8.960;2023-02-16T11:08:21;98147.47;;;5.75;64.53
3150;BME280;32503;47.748;8.960;2023-02-16T11:10:52;98130.28;;;5.76;64.18
3150;BME280;32503;47.748;8.960;2023-02-16T11:13:31;98114.03;;;5.86;64.82
3150;BME280;32503;47.748;8.960;2023-02-16T11:16:09;98142.72;;;6.24;63.32
3150;BME280;32503;47.748;8.960;2023-02-16T11:18:39;98133.63;;;6.39;63.67
3150;BME280;32503;47.748;8.960;2023-02-16T11:21:08;98127.59;;;6.61;62.45
3150;BME280;32503;47.748;8.960;2023-02-16T11:23:38;98106.38;;;6.59;61.75
3150;BME280;32503;47.748;8.960;2023-02-16T11:26:20;98104.28;;;6.84;61.95
3150;BME280;32503;47.748;8.960;2023-02-16T11:28:50;98123.69;;;7.22;61.24
3150;BME280;32503;47.748;8.960;2023-02-16T11:31:30;98093.16;;;7.41;60.86
3150;BME280;32503;47.748;8.960;2023-02-16T11:34:01;98115.13;;;7.57;59.33
3150;BME280;32503;47.748;8.960;2023-02-16T11:36:33;98114.84;;;7.58;59.22
3150;BME280;32503;47.748;8.960;2023-02-16T11:39:06;98108.50;;;7.77;59.38
3150;BME280;32503;47.748;8.960;2023-02-16T11:41:34;98114.81;;;7.95;59.21
3150;BME280;32503;47.748;8.960;2023-02-16T11:44:02;98115.13;;;8.16;59.55
3150;BME280;32503;47.748;8.960;2023-02-16T11:46:38;98111.59;;;8.38;59.58
3150;BME280;32503;47.748;8.960;2023-02-16T11:49:29;98109.69;;;8.61;58.38
3150;BME280;32503;47.748;8.960;2023-02-16T11:51:57;98075.31;;;8.67;57.66
3150;BME280;32503;47.748;8.960;2023-02-16T11:54:24;98088.69;;;8.98;57.61
3150;BME280;32503;47.748;8.960;2023-02-16T11:57:04;98048.88;;;8.95;57.63
3150;BME280;32503;47.748;8.960;2023-02-16T11:59:35;98060.19;;;9.23;57.23
3150;BME280;32503;47.748;8.960;2023-02-16T12:02:47;98076.59;;;9.62;56.61
3150;BME280;32503;47.748;8.960;2023-02-16T12:05:34;98062.44;;;9.47;54.84
3150;BME280;32503;47.748;8.960;2023-02-16T12:08:33;98069.28;;;8.39;56.99
3150;BME280;32503;47.748;8.960;2023-02-16T12:11:20;98062.84;;;8.17;57.65
3150;BME280;32503;47.748;8.960;2023-02-16T12:14:10;98061.28;;;6.98;60.75
3150;BME280;32503;47.748;8.960;2023-02-16T12:16:48;98064.06;;;6.65;62.37
3150;BME280;32503;47.748;8.960;2023-02-16T12:19:32;98053.03;;;6.80;62.56
3150;BME280;32503;47.748;8.960;2023-02-16T12:22:18;98045.66;;;6.86;61.95
3150;BME280;32503;47.748;8.960;2023-02-16T12:25:04;98046.66;;;6.90;62.14
3150;BME280;32503;47.748;8.960;2023-02-16T12:27:41;98050.69;;;6.04;64.22
3150;BME280;32503;47.748;8.960;2023-02-16T12:30:24;98052.63;;;6.73;62.62
3150;BME280;32503;47.748;8.960;2023-02-16T12:33:14;98052.88;;;7.13;61.16
3150;BME280;32503;47.748;8.960;2023-02-16T12:36:33;98047.28;;;7.24;61.16
3150;BME280;32503;47.748;8.960;2023-02-16T12:39:16;98043.50;;;7.25;60.67
3150;BME280;32503;47.748;8.960;2023-02-16T12:41:56;98033.97;;;7.18;60.84
3150;BME280;32503;47.748;8.960;2023-02-16T12:44:32;98034.09;;;7.36;60.80
3150;BME280;32503;47.748;8.960;2023-02-16T12:47:04;98028.84;;;7.53;61.03
3150;BME280;32503;47.748;8.960;2023-02-16T12:49:45;98018.06;;;7.53;61.04
3150;BME280;32503;47.748;8.960;2023-02-16T12:52:29;98005.31;;;7.59;60.68
3150;BME280;32503;47.748;8.960;2023-02-16T12:55:17;98002.41;;;7.78;60.63
3150;BME280;32503;47.748;8.960;2023-02-16T12:57:53;97987.78;;;7.93;60.55
3150;BME280;32503;47.748;8.960;2023-02-16T13:00:30;97999.59;;;8.14;60.28
3150;BME280;32503;47.748;8.960;2023-02-16T13:03:15;98003.56;;;8.17;60.17
3150;BME280;32503;47.748;8.960;2023-02-16T13:05:50;97988.38;;;8.21;59.88
3150;BME280;32503;47.748;8.960;2023-02-16T13:08:29;97995.97;;;8.19;59.66
3150;BME280;32503;47.748;8.960;2023-02-16T13:11:10;97982.59;;;8.05;60.01
3150;BME280;32503;47.748;8.960;2023-02-16T13:13:40;97968.78;;;7.98;60.21
3150;BME280;32503;47.748;8.960;2023-02-16T13:16:14;97984.78;;;7.94;60.53
3150;BME280;32503;47.748;8.960;2023-02-16T13:18:45;97979.66;;;7.84;61.20
3150;BME280;32503;47.748;8.960;2023-02-16T13:21:31;97970.13;;;7.87;61.40
3150;BME280;32503;47.748;8.960;2023-02-16T13:24:10;97960.81;;;7.84;61.67
3150;BME280;32503;47.748;8.960;2023-02-16T13:26:52;97957.50;;;7.87;62.33
3150;BME280;32503;47.748;8.960;2023-02-16T13:29:50;97955.81;;;8.00;61.84
3150;BME280;32503;47.748;8.960;2023-02-16T13:32:57;97959.81;;;8.11;61.47
3150;BME280;32503;47.748;8.960;2023-02-16T13:35:41;97953.56;;;8.33;61.16
3150;BME280;32503;47.748;8.960;2023-02-16T13:38:42;97935.94;;;8.36;60.24
3150;BME280;32503;47.748;8.960;2023-02-16T13:41:43;97936.78;;;8.37;59.88
3150;BME280;32503;47.748;8.960;2023-02-16T13:44:23;97929.78;;;8.35;60.73
3150;BME280;32503;47.748;8.960;2023-02-16T13:46:52;97931.44;;;8.45;60.45
3150;BME280;32503;47.748;8.960;2023-02-16T13:49:32;97921.91;;;8.48;60.05
3150;BME280;32503;47.748;8.960;2023-02-16T13:52:01;97911.28;;;8.43;60.71
3150;BME280;32503;47.748;8.960;2023-02-16T13:54:32;97921.00;;;8.61;60.02
3150;BME280;32503;47.748;8.960;2023-02-16T13:57:02;97923.06;;;8.73;60.11